EGSSLEAL

Guest
Details From EGSS - London Stansted
To LEAL - Alicante
Flight Number -
Tags Generated
Created
Modified
Stats Distance 817 nm / 1,513 km
Max Altitude 0 ft / 0 m
Waypoints 5
Social Downloads 6
Likes 0
Share VATSIM

Download

Looking for another format? Having issues loading an existing format? Contact us
Advertisement - Login to hide

Notes

Generated

Route

EGSS SR SOVAR R2305 LEAL

ID Type Via Altitude Latitude Longitude Leg Dist Tot Dist Heading (true) Name
O EGSS APT - 0 ft / 0 m 51.87508˚ 0.21993˚ - 0 nm - -
SR NDB - 0 ft / 0 m 47.25950˚ -0.11436˚ 277 nm 277 nm 183° / 183° SAUMUR NDB
SOVAR FIX - 0 ft / 0 m 42.78806˚ -0.24444˚ 268 nm 546 nm 181° / 181° -
R2305 FIX - 0 ft / 0 m 38.28452˚ -0.57500˚ 270 nm 816 nm 183° / 183° -
O LEAL APT - 0 ft / 0 m 38.28452˚ -0.57500˚ 0 nm 816 nm 270° / 270° -

Altitude Profile

Advertisement - Login to hide

Weather


0- 5 10 15 20 25 30 35+ Temperature / ° C

Clouds and Precipitation
Forecast for 2017-12-15 06:00 UTC. Updated an hour ago

Ground ~20,000 ft ~40,000 ft Winds

EGSS

Details ICAO EGSS (STN)
Name London Stansted
Region United Kingdom
Timezone Europe/London (UTC+0.0)
Stats Elevation 348 ft / 106 m (AMSL)
Location 51.885097° 0.234962°
Runways 1
Magnetic Variation 0.362° W

METAR

EGSS 150620Z AUTO 29005KT 9999 -RA SCT012/// BKN028/// BKN035/// //////CB 01/00 Q0991 RESN RERA

Decode

TAF

TAF AMD EGSS 150609Z 1506/1612 33010KT 9999 SCT030 TEMPO 1506/1515 7000 SHRA BKN010 PROB30 TEMPO 1506/1507 2000 +SHRASN BKN004 PROB30 TEMPO 1507/1511 3000 SHRASN BKN004 PROB30 TEMPO 1510/1521 35015G25KT PROB30 TEMPO 1515/1521 7000 SHRA BKN014 BECMG 1609/1612 27010KT

Decode

Departure Runways

ID Width Length Bearing (true) Bearing (mag) Surface Threshold Offset Overrun Length
04 151 ft / 46 m 10,011 ft / 3,052 m 42.79° 43.15° Asphalt 994 ft / 303 m 0 ft / 0 m
22 151 ft / 46 m 10,011 ft / 3,052 m 222.81° 223.17° Asphalt 0 ft / 0 m 0 ft / 0 m

LEAL

Details ICAO LEAL (ALC)
Name Alicante
Region Spain
Timezone Europe/Madrid (UTC+1.0)
Stats Elevation 141 ft / 43 m (AMSL)
Location 38.282169° -0.558157°
Runways 1
Magnetic Variation 0.184° E

METAR

LEAL 150600Z 19004KT 140V230 9999 FEW050 13/07 Q1011 NOSIG

Decode

TAF

TAF TAF LEAL 150500Z 1506/1606 24011KT 9999 FEW030 TX21/1513Z TN06/1606Z TEMPO 1506/1509 VRB04KT TEMPO 1511/1515 30012G25KT BECMG 1512/1515 29012KT BECMG 1518/1520 30006KT

Decode

Destination Runways

ID Width Length Bearing (true) Bearing (mag) Surface Threshold Offset Overrun Length
10 148 ft / 45 m 9,799 ft / 2,987 m 100.07° 99.89° Asphalt 0 ft / 0 m 164 ft / 50 m
28 148 ft / 45 m 9,799 ft / 2,987 m 280.09° 279.91° Asphalt 0 ft / 0 m 197 ft / 60 m

Approach Navaids

Runway Type Ident Frequency Range Bearing (true) Bearing (mag) Slope Elevation
10 Localiser IAT 110.30 MHz 18 nm / 33 km 100.09° 99.91° - 29 ft / 9 m (AMSL)
10 Glidescope IAT 110.30 MHz 10 nm / 19 km 100.09° 99.91° 3.00° 129 ft / 39 m (AMSL)
10 DME IAT 110.30 MHz 18 nm / 33 km - - - 129 ft / 39 m (AMSL)

Popular Alternatives